sensor_id;sensor_type;location;lat;lon;timestamp;temperature;humidity
4081;DHT22;2055;50.074;8.436;2022-12-15T00:00:07;-3.30;99.90
4081;DHT22;2055;50.074;8.436;2022-12-15T00:02:51;-3.30;99.90
4081;DHT22;2055;50.074;8.436;2022-12-15T00:05:35;-3.30;99.90
4081;DHT22;2055;50.074;8.436;2022-12-15T00:08:19;-3.30;99.90
4081;DHT22;2055;50.074;8.436;2022-12-15T00:11:04;-3.30;99.90
4081;DHT22;2055;50.074;8.436;2022-12-15T00:13:48;-3.30;99.90
4081;DHT22;2055;50.074;8.436;2022-12-15T00:16:32;-3.30;99.90
4081;DHT22;2055;50.074;8.436;2022-12-15T00:19:16;-3.30;99.90
4081;DHT22;2055;50.074;8.436;2022-12-15T00:22:00;-3.30;99.90
4081;DHT22;2055;50.074;8.436;2022-12-15T00:24:44;-3.30;99.90
4081;DHT22;2055;50.074;8.436;2022-12-15T00:27:29;-3.30;99.90
4081;DHT22;2055;50.074;8.436;2022-12-15T00:30:13;-3.30;99.90
4081;DHT22;2055;50.074;8.436;2022-12-15T00:32:57;-3.30;99.90
4081;DHT22;2055;50.074;8.436;2022-12-15T00:35:41;-3.30;99.90
4081;DHT22;2055;50.074;8.436;2022-12-15T00:38:26;-3.40;99.90
4081;DHT22;2055;50.074;8.436;2022-12-15T00:41:11;-3.40;99.90
4081;DHT22;2055;50.074;8.436;2022-12-15T00:43:37;-3.50;99.90
4081;DHT22;2055;50.074;8.436;2022-12-15T00:46:03;-3.40;99.90
4081;DHT22;2055;50.074;8.436;2022-12-15T00:48:48;-3.30;99.90
4081;DHT22;2055;50.074;8.436;2022-12-15T00:51:14;-3.40;99.90
4081;DHT22;2055;50.074;8.436;2022-12-15T00:53:42;-3.60;99.90
4081;DHT22;2055;50.074;8.436;2022-12-15T00:56:26;-3.80;99.90
4081;DHT22;2055;50.074;8.436;2022-12-15T00:59:11;-3.90;99.90
4081;DHT22;2055;50.074;8.436;2022-12-15T01:01:55;-4.00;99.90
4081;DHT22;2055;50.074;8.436;2022-12-15T01:04:39;-4.10;99.90
4081;DHT22;2055;50.074;8.436;2022-12-15T01:07:23;-4.20;99.90
4081;DHT22;2055;50.074;8.436;2022-12-15T01:10:08;-4.30;99.90
4081;DHT22;2055;50.074;8.436;2022-12-15T01:12:52;-4.30;99.90
4081;DHT22;2055;50.074;8.436;2022-12-15T01:15:37;-4.40;99.90
4081;DHT22;2055;50.074;8.436;2022-12-15T01:18:21;-4.50;99.90
4081;DHT22;2055;50.074;8.436;2022-12-15T01:21:07;-4.40;99.90
4081;DHT22;2055;50.074;8.436;2022-12-15T01:23:34;-4.20;99.90
4081;DHT22;2055;50.074;8.436;2022-12-15T01:26:00;-4.10;99.90
4081;DHT22;2055;50.074;8.436;2022-12-15T01:28:27;-4.20;99.90
4081;DHT22;2055;50.074;8.436;2022-12-15T01:30:53;-4.10;99.90
4081;DHT22;2055;50.074;8.436;2022-12-15T01:33:19;-4.10;99.90
4081;DHT22;2055;50.074;8.436;2022-12-15T01:35:45;-4.20;99.90
4081;DHT22;2055;50.074;8.436;2022-12-15T01:38:10;-4.20;99.90
4081;DHT22;2055;50.074;8.436;2022-12-15T01:40:36;-4.60;99.90
4081;DHT22;2055;50.074;8.436;2022-12-15T01:43:35;-4.10;99.90
4081;DHT22;2055;50.074;8.436;2022-12-15T01:46:08;-4.50;99.90
4081;DHT22;2055;50.074;8.436;2022-12-15T01:48:38;-4.40;99.90
4081;DHT22;2055;50.074;8.436;2022-12-15T01:51:25;-4.40;99.90
4081;DHT22;2055;50.074;8.436;2022-12-15T01:54:03;-4.30;99.90
4081;DHT22;2055;50.074;8.436;2022-12-15T01:56:32;-4.40;99.90
4081;DHT22;2055;50.074;8.436;2022-12-15T01:59:01;-4.40;99.90
4081;DHT22;2055;50.074;8.436;2022-12-15T02:01:27;-4.30;99.90
4081;DHT22;2055;50.074;8.436;2022-12-15T02:03:53;-4.30;99.90
4081;DHT22;2055;50.074;8.436;2022-12-15T02:06:20;-4.30;99.90
4081;DHT22;2055;50.074;8.436;2022-12-15T02:08:48;-4.30;99.90
4081;DHT22;2055;50.074;8.436;2022-12-15T02:11:23;-4.30;99.90
4081;DHT22;2055;50.074;8.436;2022-12-15T02:14:00;-4.30;99.90
4081;DHT22;2055;50.074;8.436;2022-12-15T02:16:37;-3.80;99.90
4081;DHT22;2055;50.074;8.436;2022-12-15T02:22:14;-4.10;99.90
4081;DHT22;2055;50.074;8.436;2022-12-15T02:25:17;-4.10;99.90
4081;DHT22;2055;50.074;8.436;2022-12-15T02:27:55;-4.10;99.90
4081;DHT22;2055;50.074;8.436;2022-12-15T02:30:34;-4.20;99.90
4081;DHT22;2055;50.074;8.436;2022-12-15T02:37:59;-4.30;99.90
4081;DHT22;2055;50.074;8.436;2022-12-15T02:40:25;-4.20;99.90
4081;DHT22;2055;50.074;8.436;2022-12-15T02:42:52;-4.00;99.90
4081;DHT22;2055;50.074;8.436;2022-12-15T02:45:27;-4.30;99.90
4081;DHT22;2055;50.074;8.436;2022-12-15T02:51:42;-4.40;99.90
4081;DHT22;2055;50.074;8.436;2022-12-15T02:54:21;-4.50;99.90
4081;DHT22;2055;50.074;8.436;2022-12-15T02:57:04;-4.60;99.90
4081;DHT22;2055;50.074;8.436;2022-12-15T02:59:47;-3.70;99.90
4081;DHT22;2055;50.074;8.436;2022-12-15T03:02:21;-4.90;99.90
4081;DHT22;2055;50.074;8.436;2022-12-15T03:04:49;-2.90;99.90
4081;DHT22;2055;50.074;8.436;2022-12-15T03:07:14;-5.20;99.90
4081;DHT22;2055;50.074;8.436;2022-12-15T03:09:40;-5.30;99.90
4081;DHT22;2055;50.074;8.436;2022-12-15T03:12:07;-5.30;99.90
4081;DHT22;2055;50.074;8.436;2022-12-15T03:14:33;-5.20;99.90
4081;DHT22;2055;50.074;8.436;2022-12-15T03:16:58;-5.10;99.90
4081;DHT22;2055;50.074;8.436;2022-12-15T03:19:24;-5.10;99.90
4081;DHT22;2055;50.074;8.436;2022-12-15T03:21:50;-5.10;99.90
4081;DHT22;2055;50.074;8.436;2022-12-15T03:24:16;-5.30;99.90
4081;DHT22;2055;50.074;8.436;2022-12-15T03:26:42;-5.40;99.90
4081;DHT22;2055;50.074;8.436;2022-12-15T03:29:08;-5.50;99.90
4081;DHT22;2055;50.074;8.436;2022-12-15T03:31:34;-5.60;99.90
4081;DHT22;2055;50.074;8.436;2022-12-15T03:33:59;-5.70;99.90
4081;DHT22;2055;50.074;8.436;2022-12-15T03:36:25;-5.70;99.90
4081;DHT22;2055;50.074;8.436;2022-12-15T03:38:50;-5.40;99.90
4081;DHT22;2055;50.074;8.436;2022-12-15T03:41:16;-5.20;99.90
4081;DHT22;2055;50.074;8.436;2022-12-15T03:43:43;-5.20;99.90
4081;DHT22;2055;50.074;8.436;2022-12-15T03:46:10;-5.30;99.90
4081;DHT22;2055;50.074;8.436;2022-12-15T03:48:36;-5.40;99.90
4081;DHT22;2055;50.074;8.436;2022-12-15T03:51:01;-5.50;99.90
4081;DHT22;2055;50.074;8.436;2022-12-15T03:53:27;-5.60;99.90
4081;DHT22;2055;50.074;8.436;2022-12-15T03:55:52;-5.70;99.90
4081;DHT22;2055;50.074;8.436;2022-12-15T03:58:18;-5.70;99.90
4081;DHT22;2055;50.074;8.436;2022-12-15T04:00:43;-5.60;99.90
4081;DHT22;2055;50.074;8.436;2022-12-15T04:03:10;-5.30;99.90
4081;DHT22;2055;50.074;8.436;2022-12-15T04:05:37;-5.10;99.90
4081;DHT22;2055;50.074;8.436;2022-12-15T04:08:03;-5.00;99.90
4081;DHT22;2055;50.074;8.436;2022-12-15T04:10:30;-4.90;99.90
4081;DHT22;2055;50.074;8.436;2022-12-15T04:13:04;-4.70;99.90
4081;DHT22;2055;50.074;8.436;2022-12-15T04:15:31;-4.60;99.90
4081;DHT22;2055;50.074;8.436;2022-12-15T04:17:56;-4.50;99.90
4081;DHT22;2055;50.074;8.436;2022-12-15T04:20:22;-4.50;99.90
4081;DHT22;2055;50.074;8.436;2022-12-15T04:22:49;-4.50;99.90
4081;DHT22;2055;50.074;8.436;2022-12-15T04:25:17;-2.30;99.90
4081;DHT22;2055;50.074;8.436;2022-12-15T04:28:03;-4.50;99.90
4081;DHT22;2055;50.074;8.436;2022-12-15T04:30:56;-4.50;99.90
4081;DHT22;2055;50.074;8.436;2022-12-15T04:33:44;-4.60;99.90
4081;DHT22;2055;50.074;8.436;2022-12-15T04:36:29;-4.60;99.90
4081;DHT22;2055;50.074;8.436;2022-12-15T04:39:13;-4.70;99.90
4081;DHT22;2055;50.074;8.436;2022-12-15T04:42:00;-4.70;99.90
4081;DHT22;2055;50.074;8.436;2022-12-15T04:44:45;-4.70;99.90
4081;DHT22;2055;50.074;8.436;2022-12-15T04:47:30;-4.70;99.90
4081;DHT22;2055;50.074;8.436;2022-12-15T04:50:14;-4.70;99.90
4081;DHT22;2055;50.074;8.436;2022-12-15T04:53:13;-4.70;99.90
4081;DHT22;2055;50.074;8.436;2022-12-15T04:55:57;-4.80;99.90
4081;DHT22;2055;50.074;8.436;2022-12-15T04:58:41;-4.90;99.90
4081;DHT22;2055;50.074;8.436;2022-12-15T05:01:26;-4.90;99.90
4081;DHT22;2055;50.074;8.436;2022-12-15T05:04:10;-4.80;99.90
4081;DHT22;2055;50.074;8.436;2022-12-15T05:06:54;-4.50;99.90
4081;DHT22;2055;50.074;8.436;2022-12-15T05:09:39;-4.90;99.90
4081;DHT22;2055;50.074;8.436;2022-12-15T05:12:23;-5.00;99.90
4081;DHT22;2055;50.074;8.436;2022-12-15T05:15:07;-5.00;99.90
4081;DHT22;2055;50.074;8.436;2022-12-15T05:17:52;-5.00;99.90
4081;DHT22;2055;50.074;8.436;2022-12-15T05:20:36;-5.00;99.90
4081;DHT22;2055;50.074;8.436;2022-12-15T05:23:20;-5.00;99.90
4081;DHT22;2055;50.074;8.436;2022-12-15T05:26:04;-5.00;99.90
4081;DHT22;2055;50.074;8.436;2022-12-15T05:28:48;-5.00;99.90
4081;DHT22;2055;50.074;8.436;2022-12-15T05:31:32;-5.20;99.90
4081;DHT22;2055;50.074;8.436;2022-12-15T05:37:11;-5.10;99.90
4081;DHT22;2055;50.074;8.436;2022-12-15T05:39:36;-5.10;99.90
4081;DHT22;2055;50.074;8.436;2022-12-15T05:42:02;-5.00;99.90
4081;DHT22;2055;50.074;8.436;2022-12-15T05:44:28;-5.00;99.90
4081;DHT22;2055;50.074;8.436;2022-12-15T05:46:54;-3.70;99.90
4081;DHT22;2055;50.074;8.436;2022-12-15T05:49:20;-5.00;99.90
4081;DHT22;2055;50.074;8.436;2022-12-15T05:51:47;-5.10;99.90
4081;DHT22;2055;50.074;8.436;2022-12-15T05:54:16;-5.10;99.90
4081;DHT22;2055;50.074;8.436;2022-12-15T05:56:42;-5.10;99.90
4081;DHT22;2055;50.074;8.436;2022-12-15T05:59:08;-4.90;99.90
4081;DHT22;2055;50.074;8.436;2022-12-15T06:01:34;-4.80;99.90
4081;DHT22;2055;50.074;8.436;2022-12-15T06:04:00;-4.40;99.90
4081;DHT22;2055;50.074;8.436;2022-12-15T06:06:26;-4.50;99.90
4081;DHT22;2055;50.074;8.436;2022-12-15T06:08:52;-4.30;99.90
4081;DHT22;2055;50.074;8.436;2022-12-15T06:11:19;-4.20;99.90
4081;DHT22;2055;50.074;8.436;2022-12-15T06:13:45;-4.10;99.90
4081;DHT22;2055;50.074;8.436;2022-12-15T06:16:12;-4.00;99.90
4081;DHT22;2055;50.074;8.436;2022-12-15T06:18:40;-4.00;99.90
4081;DHT22;2055;50.074;8.436;2022-12-15T06:21:18;-3.90;99.90
4081;DHT22;2055;50.074;8.436;2022-12-15T06:23:44;-3.80;99.90
4081;DHT22;2055;50.074;8.436;2022-12-15T06:28:37;-3.80;99.90
4081;DHT22;2055;50.074;8.436;2022-12-15T06:31:05;-3.70;99.90
4081;DHT22;2055;50.074;8.436;2022-12-15T06:33:31;-3.70;99.90
4081;DHT22;2055;50.074;8.436;2022-12-15T06:36:04;-3.70;99.90
4081;DHT22;2055;50.074;8.436;2022-12-15T06:38:31;-3.70;99.90
4081;DHT22;2055;50.074;8.436;2022-12-15T06:40:58;-3.40;99.90
4081;DHT22;2055;50.074;8.436;2022-12-15T06:43:25;-3.70;99.90
4081;DHT22;2055;50.074;8.436;2022-12-15T06:45:50;-3.70;99.90
4081;DHT22;2055;50.074;8.436;2022-12-15T06:48:17;-3.70;99.90
4081;DHT22;2055;50.074;8.436;2022-12-15T06:50:43;-3.70;99.90
4081;DHT22;2055;50.074;8.436;2022-12-15T06:53:10;-3.70;99.90
4081;DHT22;2055;50.074;8.436;2022-12-15T06:55:36;-3.70;99.90
4081;DHT22;2055;50.074;8.436;2022-12-15T06:58:01;-3.70;99.90
4081;DHT22;2055;50.074;8.436;2022-12-15T07:00:27;-3.70;99.90
4081;DHT22;2055;50.074;8.436;2022-12-15T07:02:52;-3.70;99.90
4081;DHT22;2055;50.074;8.436;2022-12-15T07:05:18;-3.70;99.90
4081;DHT22;2055;50.074;8.436;2022-12-15T07:07:44;-3.70;99.90
4081;DHT22;2055;50.074;8.436;2022-12-15T07:10:10;-3.40;99.90
4081;DHT22;2055;50.074;8.436;2022-12-15T07:12:36;-3.60;99.90
4081;DHT22;2055;50.074;8.436;2022-12-15T07:15:01;-3.60;99.90
4081;DHT22;2055;50.074;8.436;2022-12-15T07:17:27;-3.60;99.90
4081;DHT22;2055;50.074;8.436;2022-12-15T07:19:53;-3.60;99.90
4081;DHT22;2055;50.074;8.436;2022-12-15T07:22:19;-3.70;99.90
4081;DHT22;2055;50.074;8.436;2022-12-15T07:24:46;-3.70;99.90
4081;DHT22;2055;50.074;8.436;2022-12-15T07:27:12;-3.80;99.90
4081;DHT22;2055;50.074;8.436;2022-12-15T07:29:37;-3.80;99.90
4081;DHT22;2055;50.074;8.436;2022-12-15T07:32:03;-2.40;99.90
4081;DHT22;2055;50.074;8.436;2022-12-15T07:34:29;-3.70;99.90
4081;DHT22;2055;50.074;8.436;2022-12-15T07:36:54;-3.70;99.90
4081;DHT22;2055;50.074;8.436;2022-12-15T07:39:20;-3.70;99.90
4081;DHT22;2055;50.074;8.436;2022-12-15T07:41:45;-3.60;99.90
4081;DHT22;2055;50.074;8.436;2022-12-15T07:44:11;-3.60;99.90
4081;DHT22;2055;50.074;8.436;2022-12-15T07:46:39;-3.60;99.90
4081;DHT22;2055;50.074;8.436;2022-12-15T07:49:04;-3.60;99.90
4081;DHT22;2055;50.074;8.436;2022-12-15T07:51:29;-3.70;99.90
4081;DHT22;2055;50.074;8.436;2022-12-15T07:53:55;-3.70;99.90
4081;DHT22;2055;50.074;8.436;2022-12-15T07:56:21;-3.70;99.90
4081;DHT22;2055;50.074;8.436;2022-12-15T07:58:46;-3.70;99.90
4081;DHT22;2055;50.074;8.436;2022-12-15T08:01:13;-3.80;99.90
4081;DHT22;2055;50.074;8.436;2022-12-15T08:03:39;-3.80;99.90
4081;DHT22;2055;50.074;8.436;2022-12-15T08:06:10;-3.80;99.90
4081;DHT22;2055;50.074;8.436;2022-12-15T08:08:36;-3.70;99.90
4081;DHT22;2055;50.074;8.436;2022-12-15T08:11:10;-3.70;99.90
4081;DHT22;2055;50.074;8.436;2022-12-15T08:13:36;-3.70;99.90
4081;DHT22;2055;50.074;8.436;2022-12-15T08:16:02;-3.60;99.90
4081;DHT22;2055;50.074;8.436;2022-12-15T08:18:28;-3.60;99.90
4081;DHT22;2055;50.074;8.436;2022-12-15T08:20:53;-3.60;99.90
4081;DHT22;2055;50.074;8.436;2022-12-15T08:23:19;-3.60;99.90
4081;DHT22;2055;50.074;8.436;2022-12-15T08:25:44;-3.50;99.90
4081;DHT22;2055;50.074;8.436;2022-12-15T08:28:10;-3.50;99.90
4081;DHT22;2055;50.074;8.436;2022-12-15T08:30:35;-3.40;99.90
4081;DHT22;2055;50.074;8.436;2022-12-15T08:33:02;-3.30;99.90
4081;DHT22;2055;50.074;8.436;2022-12-15T08:35:28;-3.20;99.90
4081;DHT22;2055;50.074;8.436;2022-12-15T08:37:54;-3.30;99.90
4081;DHT22;2055;50.074;8.436;2022-12-15T08:40:19;-3.30;99.90
4081;DHT22;2055;50.074;8.436;2022-12-15T08:42:45;-1.40;99.90
4081;DHT22;2055;50.074;8.436;2022-12-15T08:45:11;-3.20;99.90
4081;DHT22;2055;50.074;8.436;2022-12-15T08:47:37;-3.30;99.90
4081;DHT22;2055;50.074;8.436;2022-12-15T08:50:05;-3.20;99.90
4081;DHT22;2055;50.074;8.436;2022-12-15T08:52:31;-3.20;99.90
4081;DHT22;2055;50.074;8.436;2022-12-15T08:54:56;-3.20;99.90
4081;DHT22;2055;50.074;8.436;2022-12-15T08:57:22;-2.90;99.90
4081;DHT22;2055;50.074;8.436;2022-12-15T08:59:47;-3.20;99.90
4081;DHT22;2055;50.074;8.436;2022-12-15T09:02:13;-3.20;99.90
4081;DHT22;2055;50.074;8.436;2022-12-15T09:04:39;-3.20;99.90
4081;DHT22;2055;50.074;8.436;2022-12-15T09:07:05;-3.20;99.90
4081;DHT22;2055;50.074;8.436;2022-12-15T09:09:30;-3.20;99.90
4081;DHT22;2055;50.074;8.436;2022-12-15T09:11:56;-3.30;99.90
4081;DHT22;2055;50.074;8.436;2022-12-15T09:14:21;-3.20;99.90
4081;DHT22;2055;50.074;8.436;2022-12-15T09:16:47;-3.10;99.90
4081;DHT22;2055;50.074;8.436;2022-12-15T09:19:12;-2.90;99.90
4081;DHT22;2055;50.074;8.436;2022-12-15T09:21:38;-2.80;99.90
4081;DHT22;2055;50.074;8.436;2022-12-15T09:24:04;-2.80;99.90
4081;DHT22;2055;50.074;8.436;2022-12-15T09:26:32;-2.80;99.90
4081;DHT22;2055;50.074;8.436;2022-12-15T09:28:58;-2.80;99.90
4081;DHT22;2055;50.074;8.436;2022-12-15T09:31:26;-2.70;99.90
4081;DHT22;2055;50.074;8.436;2022-12-15T09:33:54;-2.40;99.90
4081;DHT22;2055;50.074;8.436;2022-12-15T09:36:21;-2.30;99.90
4081;DHT22;2055;50.074;8.436;2022-12-15T09:38:46;-2.20;99.90
4081;DHT22;2055;50.074;8.436;2022-12-15T09:43:49;-2.40;99.90
4081;DHT22;2055;50.074;8.436;2022-12-15T09:46:22;-2.20;99.90
4081;DHT22;2055;50.074;8.436;2022-12-15T09:48:51;-2.10;99.90
4081;DHT22;2055;50.074;8.436;2022-12-15T09:51:18;-2.00;99.90
4081;DHT22;2055;50.074;8.436;2022-12-15T09:53:45;-2.00;99.90
4081;DHT22;2055;50.074;8.436;2022-12-15T09:56:20;-2.20;99.90
4081;DHT22;2055;50.074;8.436;2022-12-15T10:06:42;-2.30;99.90
4081;DHT22;2055;50.074;8.436;2022-12-15T10:09:21;-2.30;99.90
4081;DHT22;2055;50.074;8.436;2022-12-15T10:12:01;-2.30;99.90
4081;DHT22;2055;50.074;8.436;2022-12-15T10:17:40;-1.90;99.90
4081;DHT22;2055;50.074;8.436;2022-12-15T10:20:19;-2.10;99.90
4081;DHT22;2055;50.074;8.436;2022-12-15T10:22:46;-2.20;99.90
4081;DHT22;2055;50.074;8.436;2022-12-15T10:25:28;-2.20;99.90
4081;DHT22;2055;50.074;8.436;2022-12-15T10:31:05;-2.00;99.90
4081;DHT22;2055;50.074;8.436;2022-12-15T10:33:38;-2.10;99.90
4081;DHT22;2055;50.074;8.436;2022-12-15T10:36:13;-2.10;99.90
4081;DHT22;2055;50.074;8.436;2022-12-15T10:38:44;-1.80;99.90
4081;DHT22;2055;50.074;8.436;2022-12-15T10:41:14;-2.10;99.90
4081;DHT22;2055;50.074;8.436;2022-12-15T10:43:43;-2.00;99.90
4081;DHT22;2055;50.074;8.436;2022-12-15T10:48:41;-2.00;99.90
4081;DHT22;2055;50.074;8.436;2022-12-15T10:53:40;-1.80;99.90
4081;DHT22;2055;50.074;8.436;2022-12-15T10:56:07;-1.80;99.90
4081;DHT22;2055;50.074;8.436;2022-12-15T10:58:49;-1.80;99.90
4081;DHT22;2055;50.074;8.436;2022-12-15T11:01:18;-1.70;99.90
4081;DHT22;2055;50.074;8.436;2022-12-15T11:03:44;-1.70;99.90
4081;DHT22;2055;50.074;8.436;2022-12-15T11:06:16;-1.70;99.90
4081;DHT22;2055;50.074;8.436;2022-12-15T11:08:43;-1.70;99.90
4081;DHT22;2055;50.074;8.436;2022-12-15T11:11:27;-1.50;99.90
4081;DHT22;2055;50.074;8.436;2022-12-15T11:14:24;-1.50;99.90
4081;DHT22;2055;50.074;8.436;2022-12-15T11:16:55;-1.50;99.90
4081;DHT22;2055;50.074;8.436;2022-12-15T11:19:37;-1.60;99.90
4081;DHT22;2055;50.074;8.436;2022-12-15T11:22:12;-1.80;99.90
4081;DHT22;2055;50.074;8.436;2022-12-15T11:24:51;-1.70;99.90
4081;DHT22;2055;50.074;8.436;2022-12-15T11:27:27;-1.40;99.90
4081;DHT22;2055;50.074;8.436;2022-12-15T11:30:08;-1.30;99.90
4081;DHT22;2055;50.074;8.436;2022-12-15T11:32:36;-1.30;99.90
4081;DHT22;2055;50.074;8.436;2022-12-15T11:35:03;-1.00;99.90
4081;DHT22;2055;50.074;8.436;2022-12-15T11:37:42;-1.30;99.90
4081;DHT22;2055;50.074;8.436;2022-12-15T11:40:28;-1.40;99.90
4081;DHT22;2055;50.074;8.436;2022-12-15T11:51:20;-1.30;99.90
4081;DHT22;2055;50.074;8.436;2022-12-15T11:56:39;-1.30;99.90
4081;DHT22;2055;50.074;8.436;2022-12-15T12:08:15;-1.20;99.90
4081;DHT22;2055;50.074;8.436;2022-12-15T12:19:06;-1.10;99.90
4081;DHT22;2055;50.074;8.436;2022-12-15T12:21:37;-0.90;99.90
4081;DHT22;2055;50.074;8.436;2022-12-15T12:24:29;-0.90;99.90
4081;DHT22;2055;50.074;8.436;2022-12-15T12:27:04;-0.70;99.90
4081;DHT22;2055;50.074;8.436;2022-12-15T12:37:38;-1.20;99.90
4081;DHT22;2055;50.074;8.436;2022-12-15T12:40:15;-1.20;99.90
4081;DHT22;2055;50.074;8.436;2022-12-15T12:42:56;-1.10;99.90
4081;DHT22;2055;50.074;8.436;2022-12-15T12:45:29;-1.10;99.90
4081;DHT22;2055;50.074;8.436;2022-12-15T12:48:00;-1.00;99.90
4081;DHT22;2055;50.074;8.436;2022-12-15T12:50:28;-1.20;99.90
4081;DHT22;2055;50.074;8.436;2022-12-15T12:52:57;-1.20;99.90
4081;DHT22;2055;50.074;8.436;2022-12-15T12:55:34;-1.20;99.90
4081;DHT22;2055;50.074;8.436;2022-12-15T12:58:02;-1.20;99.90
4081;DHT22;2055;50.074;8.436;2022-12-15T13:00:29;-1.30;99.90
4081;DHT22;2055;50.074;8.436;2022-12-15T13:03:16;-1.20;99.90
4081;DHT22;2055;50.074;8.436;2022-12-15T13:05:45;-1.30;99.90
4081;DHT22;2055;50.074;8.436;2022-12-15T13:10:42;-1.20;99.90
4081;DHT22;2055;50.074;8.436;2022-12-15T13:16:23;-1.30;99.90
4081;DHT22;2055;50.074;8.436;2022-12-15T13:19:03;-1.10;99.90
4081;DHT22;2055;50.074;8.436;2022-12-15T13:24:36;-1.10;99.90
4081;DHT22;2055;50.074;8.436;2022-12-15T13:29:35;-1.10;99.90
4081;DHT22;2055;50.074;8.436;2022-12-15T13:32:02;-1.10;99.90
4081;DHT22;2055;50.074;8.436;2022-12-15T13:34:35;-1.20;99.90
4081;DHT22;2055;50.074;8.436;2022-12-15T13:37:18;-1.30;99.90
4081;DHT22;2055;50.074;8.436;2022-12-15T13:39:54;-1.50;99.90
4081;DHT22;2055;50.074;8.436;2022-12-15T13:42:26;-1.60;99.90
4081;DHT22;2055;50.074;8.436;2022-12-15T13:45:02;-1.60;99.90
4081;DHT22;2055;50.074;8.436;2022-12-15T13:47:30;-1.60;99.90
4081;DHT22;2055;50.074;8.436;2022-12-15T13:50:16;-1.50;99.90
4081;DHT22;2055;50.074;8.436;2022-12-15T13:55:20;-1.60;99.90
4081;DHT22;2055;50.074;8.436;2022-12-15T13:58:02;-1.70;99.90
4081;DHT22;2055;50.074;8.436;2022-12-15T14:00:29;-1.50;99.90
4081;DHT22;2055;50.074;8.436;2022-12-15T14:03:11;-1.70;99.90
4081;DHT22;2055;50.074;8.436;2022-12-15T14:05:37;-1.80;99.90
4081;DHT22;2055;50.074;8.436;2022-12-15T14:08:09;-1.80;99.90
4081;DHT22;2055;50.074;8.436;2022-12-15T14:10:42;-1.70;99.90
4081;DHT22;2055;50.074;8.436;2022-12-15T14:15:52;-1.70;99.90
4081;DHT22;2055;50.074;8.436;2022-12-15T14:18:31;-1.70;99.90
4081;DHT22;2055;50.074;8.436;2022-12-15T14:20:57;-1.80;99.90
4081;DHT22;2055;50.074;8.436;2022-12-15T14:23:28;-1.80;99.90
4081;DHT22;2055;50.074;8.436;2022-12-15T14:26:15;-1.90;99.90
4081;DHT22;2055;50.074;8.436;2022-12-15T14:28:43;-2.00;99.90
4081;DHT22;2055;50.074;8.436;2022-12-15T14:31:18;-2.10;99.90
4081;DHT22;2055;50.074;8.436;2022-12-15T14:33:47;-2.10;99.90
4081;DHT22;2055;50.074;8.436;2022-12-15T14:36:15;-2.10;99.90
4081;DHT22;2055;50.074;8.436;2022-12-15T14:38:56;-1.90;99.90
4081;DHT22;2055;50.074;8.436;2022-12-15T14:41:39;-2.00;99.90
4081;DHT22;2055;50.074;8.436;2022-12-15T14:44:27;-1.90;99.90
4081;DHT22;2055;50.074;8.436;2022-12-15T14:46:53;-2.00;99.90
4081;DHT22;2055;50.074;8.436;2022-12-15T14:49:23;-2.00;99.90
4081;DHT22;2055;50.074;8.436;2022-12-15T14:51:52;-2.00;99.90
4081;DHT22;2055;50.074;8.436;2022-12-15T14:54:37;-2.20;99.90
4081;DHT22;2055;50.074;8.436;2022-12-15T14:57:14;-2.20;99.90
4081;DHT22;2055;50.074;8.436;2022-12-15T14:59:43;-2.30;99.90
4081;DHT22;2055;50.074;8.436;2022-12-15T15:04:39;-2.20;99.90
4081;DHT22;2055;50.074;8.436;2022-12-15T15:07:13;-2.50;99.90
4081;DHT22;2055;50.074;8.436;2022-12-15T15:09:41;-2.60;99.90
4081;DHT22;2055;50.074;8.436;2022-12-15T15:12:19;-2.30;99.90
4081;DHT22;2055;50.074;8.436;2022-12-15T15:14:58;-2.70;99.90
4081;DHT22;2055;50.074;8.436;2022-12-15T15:17:29;-2.80;99.90
4081;DHT22;2055;50.074;8.436;2022-12-15T15:20:06;-2.80;99.90
4081;DHT22;2055;50.074;8.436;2022-12-15T15:22:41;-2.90;99.90
4081;DHT22;2055;50.074;8.436;2022-12-15T15:28:21;-3.00;99.90
4081;DHT22;2055;50.074;8.436;2022-12-15T15:31:00;-2.70;99.90
4081;DHT22;2055;50.074;8.436;2022-12-15T15:33:31;-3.10;99.90
4081;DHT22;2055;50.074;8.436;2022-12-15T15:36:01;-3.10;99.90
4081;DHT22;2055;50.074;8.436;2022-12-15T15:41:17;-3.20;99.90
4081;DHT22;2055;50.074;8.436;2022-12-15T15:43:43;-3.30;99.90
4081;DHT22;2055;50.074;8.436;2022-12-15T15:46:19;-3.30;99.90
4081;DHT22;2055;50.074;8.436;2022-12-15T15:49:07;-2.90;99.90
4081;DHT22;2055;50.074;8.436;2022-12-15T15:51:33;-3.30;99.90
4081;DHT22;2055;50.074;8.436;2022-12-15T15:54:02;-3.30;99.90
4081;DHT22;2055;50.074;8.436;2022-12-15T15:56:28;-3.30;99.90
4081;DHT22;2055;50.074;8.436;2022-12-15T15:58:55;-3.30;99.90
4081;DHT22;2055;50.074;8.436;2022-12-15T16:01:21;-3.30;99.90
4081;DHT22;2055;50.074;8.436;2022-12-15T16:03:47;-3.40;99.90
4081;DHT22;2055;50.074;8.436;2022-12-15T16:06:19;-3.40;99.90
4081;DHT22;2055;50.074;8.436;2022-12-15T16:08:51;-3.30;99.90
4081;DHT22;2055;50.074;8.436;2022-12-15T16:11:18;-3.50;99.90
4081;DHT22;2055;50.074;8.436;2022-12-15T16:13:44;-3.40;99.90
4081;DHT22;2055;50.074;8.436;2022-12-15T16:16:30;-3.50;99.90
4081;DHT22;2055;50.074;8.436;2022-12-15T16:18:57;-3.60;99.90
4081;DHT22;2055;50.074;8.436;2022-12-15T16:21:25;-3.60;99.90
4081;DHT22;2055;50.074;8.436;2022-12-15T16:23:51;-3.70;99.90
4081;DHT22;2055;50.074;8.436;2022-12-15T16:26:29;-3.60;99.90
4081;DHT22;2055;50.074;8.436;2022-12-15T16:28:55;-3.20;99.90
4081;DHT22;2055;50.074;8.436;2022-12-15T16:31:32;-3.50;99.90
4081;DHT22;2055;50.074;8.436;2022-12-15T16:34:03;-3.50;99.90
4081;DHT22;2055;50.074;8.436;2022-12-15T16:36:30;-3.60;99.90
4081;DHT22;2055;50.074;8.436;2022-12-15T16:38:56;-3.70;99.90
4081;DHT22;2055;50.074;8.436;2022-12-15T16:41:22;-3.80;99.90
4081;DHT22;2055;50.074;8.436;2022-12-15T16:43:48;-3.80;99.90
4081;DHT22;2055;50.074;8.436;2022-12-15T16:46:14;-3.90;99.90
4081;DHT22;2055;50.074;8.436;2022-12-15T16:48:41;-3.90;99.90
4081;DHT22;2055;50.074;8.436;2022-12-15T16:51:08;-3.80;99.90
4081;DHT22;2055;50.074;8.436;2022-12-15T16:53:40;-3.90;99.90
4081;DHT22;2055;50.074;8.436;2022-12-15T16:56:09;-3.90;99.90
4081;DHT22;2055;50.074;8.436;2022-12-15T16:58:37;-3.80;99.90
4081;DHT22;2055;50.074;8.436;2022-12-15T17:01:02;-3.80;99.90
4081;DHT22;2055;50.074;8.436;2022-12-15T17:03:28;-3.70;99.90
4081;DHT22;2055;50.074;8.436;2022-12-15T17:05:56;-3.70;99.90
4081;DHT22;2055;50.074;8.436;2022-12-15T17:10:51;-3.50;99.90
4081;DHT22;2055;50.074;8.436;2022-12-15T17:13:29;-3.30;99.90
4081;DHT22;2055;50.074;8.436;2022-12-15T17:15:56;-3.20;99.90
4081;DHT22;2055;50.074;8.436;2022-12-15T17:18:23;-3.20;99.90
4081;DHT22;2055;50.074;8.436;2022-12-15T17:20:49;-3.10;99.90
4081;DHT22;2055;50.074;8.436;2022-12-15T17:23:16;-3.10;99.90
4081;DHT22;2055;50.074;8.436;2022-12-15T17:25:44;-3.30;99.90
4081;DHT22;2055;50.074;8.436;2022-12-15T17:28:23;-3.40;99.90
4081;DHT22;2055;50.074;8.436;2022-12-15T17:30:49;-2.20;99.90
4081;DHT22;2055;50.074;8.436;2022-12-15T17:33:34;-3.70;99.90
4081;DHT22;2055;50.074;8.436;2022-12-15T17:36:02;-3.70;99.90
4081;DHT22;2055;50.074;8.436;2022-12-15T17:38:28;-3.80;99.90
4081;DHT22;2055;50.074;8.436;2022-12-15T17:40:54;-3.90;99.90
4081;DHT22;2055;50.074;8.436;2022-12-15T17:43:23;-4.10;99.90
4081;DHT22;2055;50.074;8.436;2022-12-15T17:45:49;-4.30;99.90
4081;DHT22;2055;50.074;8.436;2022-12-15T17:48:16;-4.40;99.90
4081;DHT22;2055;50.074;8.436;2022-12-15T17:50:42;-4.40;99.90
4081;DHT22;2055;50.074;8.436;2022-12-15T17:53:10;-4.50;99.90
4081;DHT22;2055;50.074;8.436;2022-12-15T17:55:36;-4.50;99.90
4081;DHT22;2055;50.074;8.436;2022-12-15T17:58:13;-4.50;99.90
4081;DHT22;2055;50.074;8.436;2022-12-15T18:00:40;-4.50;99.90
4081;DHT22;2055;50.074;8.436;2022-12-15T18:03:05;-4.50;99.90
4081;DHT22;2055;50.074;8.436;2022-12-15T18:05:31;-4.40;99.90
4081;DHT22;2055;50.074;8.436;2022-12-15T18:08:02;-4.40;99.90
4081;DHT22;2055;50.074;8.436;2022-12-15T18:10:34;-4.40;99.90
4081;DHT22;2055;50.074;8.436;2022-12-15T18:13:00;-4.40;99.90